Time;durP1;ratioP1;P1;durP2;ratioP2;P2;SDS_P1;SDS_P2;PMS_P1;PMS_P2;Temp;Humidity;BMP_temperature;BMP_pressure;BME280_temperature;BME280_humidity;BME280_pressure;Samples;Min_cycle;Max_cycle;Signal;HPM_P1;HPM_P2
2021/10/07 00:00:13;;;;;;;;;5.75;5.75;;;;;11.79;69.24;102479.63;5040338;28;45263;-79
2021/10/07 00:02:39;;;;;;;;;8.00;7.75;;;;;11.78;69.27;102483.13;5040252;28;45646;-78
2021/10/07 00:05:06;;;;;;;;;5.50;5.50;;;;;11.77;69.50;102478.78;5040246;28;45652;-78
2021/10/07 00:07:32;;;;;;;;;10.25;8.00;;;;;11.75;69.32;102483.19;5036738;28;45355;-77
2021/10/07 00:09:57;;;;;;;;;7.00;6.00;;;;;11.74;69.14;102489.34;5039143;28;45453;-77
2021/10/07 00:12:23;;;;;;;;;8.25;7.00;;;;;11.70;69.27;102494.63;5039947;28;46458;-77
2021/10/07 00:14:48;;;;;;;;;7.75;5.50;;;;;11.67;69.00;102501.69;5039989;28;45418;-77
2021/10/07 00:17:13;;;;;;;;;10.50;7.00;;;;;11.67;69.31;102502.56;5039385;28;45910;-77
2021/10/07 00:19:39;;;;;;;;;7.00;6.00;;;;;11.62;69.57;102499.09;5039729;28;45299;-78
2021/10/07 00:22:04;;;;;;;;;6.25;5.00;;;;;11.60;69.69;102500.88;5039728;28;45316;-78
2021/10/07 00:24:30;;;;;;;;;7.00;6.00;;;;;11.56;69.54;102494.75;5039334;28;45539;-78
2021/10/07 00:26:55;;;;;;;;;10.00;7.75;;;;;11.58;69.72;102486.88;5039640;28;45396;-78
2021/10/07 00:31:56;;;;;;;;;9.25;8.00;;;;;11.61;70.01;102507.00;5039556;28;46052;-78
2021/10/07 00:39:02;;;;;;;;;8.50;6.50;;;;;11.59;70.19;102513.19;5039787;28;45362;-78
2021/10/07 00:39:50;;;;;;;;;8.25;6.75;;;;;11.59;70.13;102515.81;5033654;28;45462;-78
2021/10/07 00:42:16;;;;;;;;;7.25;5.75;;;;;11.55;70.20;102507.94;5021712;28;47135;-79
2021/10/07 00:44:44;;;;;;;;;10.25;8.00;;;;;11.59;70.04;102514.94;5020300;28;45218;-79
2021/10/07 00:47:11;;;;;;;;;6.00;6.00;;;;;11.56;70.01;102515.81;5021413;28;45185;-78
2021/10/07 00:49:39;;;;;;;;;8.00;7.00;;;;;11.52;70.11;102510.59;5039648;28;45274;-78
2021/10/07 00:52:11;;;;;;;;;6.25;6.00;;;;;11.56;70.21;102517.56;5039382;28;46144;-78
2021/10/07 00:54:37;;;;;;;;;7.75;7.50;;;;;11.52;70.09;102510.59;5033078;28;45602;-78
2021/10/07 00:57:05;;;;;;;;;6.25;6.25;;;;;11.47;70.18;102515.91;5039400;28;45395;-78
2021/10/07 00:59:33;;;;;;;;;8.00;7.00;;;;;11.43;70.49;102498.41;5039368;28;45462;-78
2021/10/07 01:02:05;;;;;;;;;9.25;8.25;;;;;11.49;70.58;102519.41;5039008;28;46347;-78
2021/10/07 01:04:31;;;;;;;;;7.25;6.00;;;;;11.43;70.22;102507.16;5038968;28;45367;-83
2021/10/07 01:06:56;;;;;;;;;8.00;6.25;;;;;11.44;70.19;102516.81;5039578;28;45611;-82
2021/10/07 01:09:22;;;;;;;;;5.50;5.50;;;;;11.40;70.42;102503.69;5039114;28;45162;-82
2021/10/07 01:11:47;;;;;;;;;8.00;6.50;;;;;11.39;70.31;102501.91;5039352;28;45300;-81
2021/10/07 01:14:13;;;;;;;;;6.50;5.00;;;;;11.41;70.52;102511.56;5037934;28;45162;-81
2021/10/07 01:16:38;;;;;;;;;6.00;5.00;;;;;11.39;70.34;102510.69;5009241;28;45530;-80
2021/10/07 01:19:04;;;;;;;;;6.00;6.00;;;;;11.39;70.28;102513.34;5038948;28;45229;-80
2021/10/07 01:21:29;;;;;;;;;8.25;7.25;;;;;11.37;70.47;102512.47;5038886;28;45380;-80
2021/10/07 01:23:55;;;;;;;;;9.75;7.00;;;;;11.37;70.62;102515.09;5036893;28;45727;-80
2021/10/07 01:26:21;;;;;;;;;7.50;6.00;;;;;11.32;70.65;102511.63;5038293;28;45244;-79
2021/10/07 01:28:50;;;;;;;;;7.25;7.25;;;;;11.31;70.34;102509.91;5038502;28;45299;-80
2021/10/07 01:31:16;;;;;;;;;6.00;5.50;;;;;11.31;70.57;102516.03;5039090;28;46365;-80
2021/10/07 01:33:42;;;;;;;;;10.75;6.75;;;;;11.30;70.66;102516.03;5038144;28;45284;-81
2021/10/07 01:36:08;;;;;;;;;5.75;4.00;;;;;11.26;70.58;102509.91;5039077;28;45234;-86
2021/10/07 01:38:34;;;;;;;;;7.50;5.75;;;;;11.27;70.82;102508.16;5030844;28;45403;-84
2021/10/07 01:40:59;;;;;;;;;8.75;6.00;;;;;11.26;70.84;102507.28;5036586;28;47197;-85
2021/10/07 01:43:25;;;;;;;;;8.50;5.00;;;;;11.24;71.00;102502.03;5038042;28;45301;-83
2021/10/07 01:45:52;;;;;;;;;6.00;5.50;;;;;11.26;70.83;102504.66;5042789;28;45212;-83
2021/10/07 01:48:18;;;;;;;;;5.50;5.50;;;;;11.24;71.27;102509.06;5042129;28;45497;-83
2021/10/07 01:50:44;;;;;;;;;5.00;5.00;;;;;11.22;70.89;102509.06;5040980;28;45351;-83
2021/10/07 01:53:10;;;;;;;;;7.75;6.75;;;;;11.24;70.74;102520.47;5041852;28;45600;-84
2021/10/07 01:55:36;;;;;;;;;5.00;4.75;;;;;11.19;70.68;102505.56;5031467;28;45271;-84
2021/10/07 01:58:01;;;;;;;;;7.75;6.25;;;;;11.20;71.02;102505.59;5023035;28;46195;-84
2021/10/07 02:00:27;;;;;;;;;7.75;5.75;;;;;11.20;70.81;102508.22;5040708;28;45179;-84
2021/10/07 02:02:52;;;;;;;;;6.00;6.00;;;;;11.21;71.00;102514.38;5023032;28;45246;-83
2021/10/07 02:05:18;;;;;;;;;5.00;4.00;;;;;11.16;71.05;102506.47;5042479;28;45402;-84
2021/10/07 02:07:44;;;;;;;;;5.25;5.00;;;;;11.20;70.96;102520.50;5023009;28;46792;-81
2021/10/07 02:10:17;;;;;;;;;8.00;7.00;;;;;11.13;71.07;102507.41;5041886;28;45658;-81
2021/10/07 02:12:48;;;;;;;;;5.25;5.25;;;;;11.14;70.85;102508.25;5023960;28;45877;-80
2021/10/07 02:15:14;;;;;;;;;6.00;6.00;;;;;11.12;71.27;102499.50;5042132;28;45280;-81
2021/10/07 02:17:40;;;;;;;;;7.00;5.75;;;;;11.11;71.14;102503.88;5040754;28;46912;-81
2021/10/07 02:20:09;;;;;;;;;7.50;7.50;;;;;11.13;71.22;102495.97;5016381;28;47479;-92
2021/10/07 02:22:35;;;;;;;;;10.00;9.00;;;;;11.14;71.35;102503.84;5020975;28;45318;-90
2021/10/07 02:25:01;;;;;;;;;11.75;7.50;;;;;11.10;71.07;102496.00;5042073;28;45349;-90
2021/10/07 02:27:26;;;;;;;;;17.75;14.00;;;;;11.10;71.05;102489.00;5041324;28;45350;-89
2021/10/07 02:29:52;;;;;;;;;14.25;12.75;;;;;11.07;70.87;102480.22;5022530;28;48304;-89
2021/10/07 02:32:17;;;;;;;;;13.25;12.00;;;;;11.07;70.91;102485.50;5022124;28;45434;-89
2021/10/07 02:34:43;;;;;;;;;20.00;14.50;;;;;11.00;71.16;102475.03;5041762;28;45372;-89
2021/10/07 02:37:10;;;;;;;;;17.00;14.50;;;;;11.00;71.18;102485.53;5041257;28;45430;-89
2021/10/07 02:39:36;;;;;;;;;16.50;14.00;;;;;11.00;71.31;102487.28;5022816;28;47290;-90
2021/10/07 02:42:02;;;;;;;;;16.50;15.75;;;;;10.99;70.97;102482.91;5040967;28;45750;-90
2021/10/07 02:44:27;;;;;;;;;18.75;14.25;;;;;10.98;71.50;102483.81;5023580;28;45255;-88
2021/10/07 02:46:53;;;;;;;;;22.75;13.00;;;;;10.94;71.40;102488.19;5041241;28;45397;-87
2021/10/07 02:49:19;;;;;;;;;16.00;15.75;;;;;10.95;71.06;102491.72;5041062;28;46358;-89
2021/10/07 02:51:44;;;;;;;;;17.25;13.75;;;;;10.91;71.17;102485.59;5022029;28;45187;-89
2021/10/07 02:54:09;;;;;;;;;21.50;16.25;;;;;10.89;71.14;102480.34;5041503;28;45252;-86
2021/10/07 02:56:35;;;;;;;;;15.00;15.00;;;;;10.93;71.28;102499.63;5040537;28;45534;-87
2021/10/07 02:59:00;;;;;;;;;18.25;17.00;;;;;10.88;71.41;102489.13;5040857;28;46111;-86
2021/10/07 03:01:26;;;;;;;;;17.25;15.75;;;;;10.89;71.19;102490.00;5040602;28;45240;-83
2021/10/07 03:03:51;;;;;;;;;14.50;14.25;;;;;10.86;71.46;102482.13;5041274;28;45214;-83
2021/10/07 03:06:17;;;;;;;;;20.50;17.25;;;;;10.83;71.14;102490.91;5022834;28;45364;-83
2021/10/07 03:08:43;;;;;;;;;18.25;15.75;;;;;10.82;71.44;102486.50;5041204;28;45466;-82
2021/10/07 03:11:08;;;;;;;;;21.00;14.25;;;;;10.80;71.29;102488.28;5040915;28;45343;-82
2021/10/07 03:13:33;;;;;;;;;23.75;16.00;;;;;10.80;71.43;102501.44;5040149;28;45576;-82
2021/10/07 03:15:59;;;;;;;;;12.75;11.00;;;;;10.78;71.54;102490.94;5041037;28;45399;-82
2021/10/07 03:18:24;;;;;;;;;15.75;15.00;;;;;10.77;71.47;102502.31;5040458;28;45394;-81
2021/10/07 03:20:50;;;;;;;;;15.75;13.00;;;;;10.77;71.44;102496.19;5038653;28;45341;-81
2021/10/07 03:23:15;;;;;;;;;12.75;10.50;;;;;10.78;71.36;102503.22;5040732;28;45383;-82
2021/10/07 03:25:40;;;;;;;;;14.00;11.00;;;;;10.77;71.25;102493.56;5040785;28;45316;-82
2021/10/07 03:28:06;;;;;;;;;12.75;10.00;;;;;10.78;71.44;102501.47;5040443;28;45442;-82
2021/10/07 03:30:32;;;;;;;;;13.50;11.00;;;;;10.80;71.43;102511.97;5040413;28;45413;-91
2021/10/07 03:33:03;;;;;;;;;11.00;9.25;;;;;10.75;71.32;102503.22;5041055;28;45289;-88
2021/10/07 03:35:29;;;;;;;;;13.50;8.50;;;;;10.74;71.46;102510.22;5040616;28;45451;-89
2021/10/07 03:37:54;;;;;;;;;9.75;6.00;;;;;10.75;71.45;102506.72;5021280;28;48421;-89
2021/10/07 03:40:19;;;;;;;;;4.75;4.75;;;;;10.75;71.40;102513.75;5021246;28;45337;-89
2021/10/07 03:42:45;;;;;;;;;9.00;7.00;;;;;10.73;71.39;102505.00;5040708;28;45260;-89
2021/10/07 03:45:10;;;;;;;;;7.00;4.75;;;;;10.63;71.61;102501.53;5022365;28;46090;-85
2021/10/07 03:47:36;;;;;;;;;6.00;4.00;;;;;10.69;72.09;102507.63;5039989;28;45474;-87
2021/10/07 03:50:02;;;;;;;;;9.50;8.00;;;;;10.64;71.31;102504.13;5037731;28;45811;-84
2021/10/07 03:52:27;;;;;;;;;6.25;5.75;;;;;10.63;71.48;102512.03;5040464;28;45224;-84
2021/10/07 03:54:53;;;;;;;;;10.00;7.00;;;;;10.66;71.20;102515.56;5040438;28;45531;-83
2021/10/07 03:57:19;;;;;;;;;10.25;8.00;;;;;10.61;71.71;102508.56;5040303;28;46054;-83
2021/10/07 03:59:45;;;;;;;;;6.50;6.00;;;;;10.63;71.50;102526.06;5040161;28;45437;-83
2021/10/07 04:02:10;;;;;;;;;6.75;5.00;;;;;10.60;71.58;102522.56;5039319;28;45159;-83
2021/10/07 04:04:35;;;;;;;;;10.25;8.25;;;;;10.60;71.49;102519.94;5022253;28;46268;-83
2021/10/07 04:07:01;;;;;;;;;6.75;6.00;;;;;10.55;71.61;102523.47;5039195;28;45428;-83
2021/10/07 04:09:26;;;;;;;;;8.25;5.50;;;;;10.61;71.50;102534.84;5039827;28;45248;-82
2021/10/07 04:11:52;;;;;;;;;8.75;6.25;;;;;10.58;71.67;102528.72;5038879;28;45399;-83
2021/10/07 04:14:17;;;;;;;;;10.00;8.00;;;;;10.53;71.33;102527.00;5039920;28;45439;-82
2021/10/07 04:16:42;;;;;;;;;8.75;7.75;;;;;10.55;71.85;102530.47;5039863;28;45409;-83
2021/10/07 04:19:08;;;;;;;;;10.25;9.00;;;;;10.49;71.84;102530.47;5039755;28;45547;-85
2021/10/07 04:21:34;;;;;;;;;8.50;8.00;;;;;10.53;71.77;102534.88;5038642;28;45408;-84
2021/10/07 04:23:59;;;;;;;;;10.00;7.00;;;;;10.47;71.75;102533.97;5039961;28;45442;-83
2021/10/07 04:26:26;;;;;;;;;7.75;7.50;;;;;10.46;71.76;102536.63;5039761;28;46328;-85
2021/10/07 04:28:52;;;;;;;;;12.00;9.75;;;;;10.48;71.89;102534.88;5039932;28;45230;-87
2021/10/07 04:31:17;;;;;;;;;10.00;10.00;;;;;10.47;71.85;102538.34;5020576;28;45416;-84
2021/10/07 04:33:43;;;;;;;;;10.75;10.00;;;;;10.47;71.75;102538.34;5039603;28;45280;-83
2021/10/07 04:36:08;;;;;;;;;13.75;11.50;;;;;10.45;71.77;102527.84;5039522;28;45328;-83
2021/10/07 04:38:34;;;;;;;;;13.25;11.00;;;;;10.41;71.79;102525.25;5039764;28;45261;-86
2021/10/07 04:40:59;;;;;;;;;13.50;13.25;;;;;10.40;71.90;102519.09;5038562;28;45442;-79
2021/10/07 04:43:25;;;;;;;;;13.75;13.75;;;;;10.42;71.92;102527.00;5039708;28;45145;-79
2021/10/07 04:45:50;;;;;;;;;19.50;18.00;;;;;10.41;71.87;102535.75;5039516;28;45416;-77
2021/10/07 04:48:15;;;;;;;;;12.25;11.75;;;;;10.37;71.74;102527.00;5039777;28;45259;-77
2021/10/07 04:50:41;;;;;;;;;12.25;10.50;;;;;10.33;71.82;102520.88;5019115;28;45264;-78
2021/10/07 04:53:06;;;;;;;;;14.25;14.25;;;;;10.35;71.88;102524.38;5037965;28;45362;-78
2021/10/07 04:55:32;;;;;;;;;15.75;11.25;;;;;10.34;72.10;102525.28;5038927;28;45470;-80
2021/10/07 04:57:57;;;;;;;;;15.25;13.25;;;;;10.33;72.04;102525.28;5039339;28;45359;-82
2021/10/07 05:00:23;;;;;;;;;17.50;12.25;;;;;10.34;71.84;102527.03;5039405;28;45903;-78
2021/10/07 05:02:48;;;;;;;;;9.75;9.75;;;;;10.34;72.08;102532.28;5037784;28;45380;-82
2021/10/07 05:05:13;;;;;;;;;11.50;10.50;;;;;10.31;72.06;102533.16;5039242;28;45366;-80
2021/10/07 05:07:39;;;;;;;;;11.75;10.50;;;;;10.32;72.19;102536.69;5038895;28;45396;-79
2021/10/07 05:10:07;;;;;;;;;11.50;10.75;;;;;10.31;71.97;102537.53;5039491;28;45334;-80
2021/10/07 05:12:32;;;;;;;;;11.00;11.00;;;;;10.32;72.36;102542.78;5037681;28;45542;-83
2021/10/07 05:14:58;;;;;;;;;12.00;11.50;;;;;10.29;72.31;102531.41;5039139;28;46177;-81
2021/10/07 05:17:23;;;;;;;;;17.00;13.50;;;;;10.33;72.30;102541.91;5038825;28;45192;-80
2021/10/07 05:19:49;;;;;;;;;14.00;12.75;;;;;10.30;72.43;102536.66;5040871;28;45458;-84
2021/10/07 05:22:14;;;;;;;;;14.75;14.75;;;;;10.37;72.24;102555.06;5038460;28;45419;-86
2021/10/07 05:24:40;;;;;;;;;12.75;12.25;;;;;10.31;72.31;102548.94;5042655;28;45277;-87
2021/10/07 05:27:05;;;;;;;;;15.00;14.00;;;;;10.30;72.24;102548.91;5042738;28;45233;-88
2021/10/07 05:29:32;;;;;;;;;13.75;11.25;;;;;10.31;72.39;102548.94;5037174;28;45541;-86
2021/10/07 05:31:57;;;;;;;;;12.25;11.00;;;;;10.29;72.46;102552.44;5023398;28;46422;-87
2021/10/07 05:34:23;;;;;;;;;8.50;8.50;;;;;10.29;72.42;102558.59;5019680;28;47038;-87
2021/10/07 05:36:49;;;;;;;;;12.00;10.00;;;;;10.30;72.49;102555.06;5024009;28;45581;-88
2021/10/07 05:39:14;;;;;;;;;10.75;9.75;;;;;10.32;72.55;102562.97;5024856;28;45353;-88
2021/10/07 05:41:39;;;;;;;;;13.75;9.00;;;;;10.30;72.69;102559.44;5037703;28;45402;-88
2021/10/07 05:44:10;;;;;;;;;9.50;9.25;;;;;10.31;72.38;102561.19;5040945;28;46348;-89
2021/10/07 05:46:36;;;;;;;;;11.75;10.00;;;;;10.30;72.30;102559.44;5040767;28;45706;-88
2021/10/07 05:49:05;;;;;;;;;8.50;8.25;;;;;10.28;72.32;102556.81;5041918;28;45416;-87
2021/10/07 05:51:32;;;;;;;;;9.75;7.25;;;;;10.30;72.25;102565.56;5042382;28;45514;-87
2021/10/07 05:53:58;;;;;;;;;11.75;8.75;;;;;10.31;72.58;102566.47;5041444;28;46373;-87
2021/10/07 05:56:23;;;;;;;;;8.25;7.50;;;;;10.28;72.60;102559.44;5042321;28;45204;-88
2021/10/07 05:58:48;;;;;;;;;10.00;10.00;;;;;10.30;72.64;102569.94;5036211;28;45411;-85
2021/10/07 06:01:14;;;;;;;;;9.75;9.00;;;;;10.28;73.17;102563.81;5041370;28;45206;-84
2021/10/07 06:03:39;;;;;;;;;12.50;10.75;;;;;10.23;72.85;102569.09;5041750;28;45358;-85
2021/10/07 06:06:05;;;;;;;;;10.50;9.75;;;;;10.20;73.07;102567.34;5041255;28;45436;-86
2021/10/07 06:08:30;;;;;;;;;14.25;11.00;;;;;10.19;72.86;102565.63;5042207;28;45193;-85
2021/10/07 06:10:56;;;;;;;;;9.75;9.75;;;;;10.21;72.85;102568.22;5040799;28;45440;-85
2021/10/07 06:13:21;;;;;;;;;13.00;9.25;;;;;10.20;72.71;102574.34;5041368;28;45273;-83
2021/10/07 06:15:48;;;;;;;;;14.00;11.25;;;;;10.23;72.99;102584.88;5041786;28;45275;-83
2021/10/07 06:18:15;;;;;;;;;16.00;13.50;;;;;10.23;73.05;102587.50;5044519;28;45424;-82
2021/10/07 06:20:41;;;;;;;;;12.00;11.75;;;;;10.24;73.01;102584.00;5046645;28;45444;-82
2021/10/07 06:23:07;;;;;;;;;11.50;11.50;;;;;10.24;72.94;102586.63;5039825;28;45440;-83
2021/10/07 06:25:34;;;;;;;;;12.00;11.25;;;;;10.26;73.10;102576.97;5039580;28;45408;-82
2021/10/07 06:28:03;;;;;;;;;15.75;14.25;;;;;10.26;73.18;102579.59;5041729;28;45194;-83
2021/10/07 06:30:28;;;;;;;;;16.50;14.75;;;;;10.32;73.30;102592.72;5040423;28;45640;-82
2021/10/07 06:32:54;;;;;;;;;14.25;13.25;;;;;10.32;73.34;102592.72;5041669;28;46204;-83
2021/10/07 06:35:20;;;;;;;;;13.50;13.50;;;;;10.28;73.29;102580.47;5033587;28;45368;-82
2021/10/07 06:37:46;;;;;;;;;15.50;15.50;;;;;10.32;73.40;102587.47;5039187;28;45289;-82
2021/10/07 06:40:11;;;;;;;;;18.50;14.00;;;;;10.38;73.24;102597.09;5041192;28;45336;-82
2021/10/07 06:42:37;;;;;;;;;11.25;10.50;;;;;10.35;73.28;102591.84;5041501;28;45466;-83
2021/10/07 06:45:05;;;;;;;;;16.50;15.00;;;;;10.40;73.47;102594.47;5022914;28;45248;-83
2021/10/07 06:47:32;;;;;;;;;16.50;12.00;;;;;10.40;73.23;102591.84;5037719;28;45170;-82
2021/10/07 06:49:58;;;;;;;;;19.50;15.75;;;;;10.45;73.70;102600.59;5040555;28;45501;-83
2021/10/07 06:52:23;;;;;;;;;16.75;16.00;;;;;10.41;73.93;102588.34;5041367;28;45368;-82
2021/10/07 06:54:49;;;;;;;;;15.00;15.00;;;;;10.43;73.66;102591.84;5041763;28;45676;-82
2021/10/07 06:57:14;;;;;;;;;18.75;16.50;;;;;10.49;73.91;102596.22;5037475;28;47014;-83
2021/10/07 06:59:39;;;;;;;;;21.00;18.25;;;;;10.48;73.89;102592.69;5039728;28;45731;-83
2021/10/07 07:02:05;;;;;;;;;17.50;14.50;;;;;10.55;73.98;102604.09;5039752;28;45363;-83
2021/10/07 07:04:30;;;;;;;;;19.50;16.75;;;;;10.53;74.28;102605.88;5040728;28;45413;-83
2021/10/07 07:06:56;;;;;;;;;14.50;14.00;;;;;10.57;74.26;102597.97;5034997;28;45935;-82
2021/10/07 07:09:21;;;;;;;;;21.75;16.00;;;;;10.63;74.51;102606.72;5041102;28;45308;-83
2021/10/07 07:11:47;;;;;;;;;15.75;14.75;;;;;10.62;74.52;102605.84;5040214;28;46271;-82
2021/10/07 07:14:12;;;;;;;;;19.50;18.25;;;;;10.68;74.52;102611.09;5040839;28;45293;-83
2021/10/07 07:16:38;;;;;;;;;18.50;16.00;;;;;10.76;74.70;102621.59;5041024;28;45216;-83
2021/10/07 07:19:04;;;;;;;;;21.25;18.25;;;;;10.80;74.53;102623.31;5040715;28;45154;-83
2021/10/07 07:21:32;;;;;;;;;19.50;16.75;;;;;10.85;74.97;102622.41;5039745;28;45289;-83
2021/10/07 07:23:59;;;;;;;;;18.00;16.75;;;;;10.85;74.93;102617.16;5035158;28;45920;-83
2021/10/07 07:26:25;;;;;;;;;23.00;18.75;;;;;10.90;75.27;102618.03;5020177;28;45408;-82
2021/10/07 07:28:51;;;;;;;;;21.75;19.75;;;;;10.95;75.02;102623.25;5040401;28;45362;-82
2021/10/07 07:31:21;;;;;;;;;23.50;19.00;;;;;11.03;75.10;102632.00;5040631;28;46168;-82
2021/10/07 07:33:47;;;;;;;;;24.75;17.25;;;;;11.05;74.89;102630.25;5037737;28;45204;-82
2021/10/07 07:36:16;;;;;;;;;20.75;19.50;;;;;11.09;75.05;102617.91;5040663;28;45264;-82
2021/10/07 07:38:43;;;;;;;;;24.50;20.00;;;;;11.16;75.05;102621.41;5040636;28;45340;-82
2021/10/07 07:41:12;;;;;;;;;18.75;18.75;;;;;11.16;74.99;102619.63;5025405;28;45965;-83
2021/10/07 07:43:40;;;;;;;;;23.00;23.00;;;;;11.25;74.94;102627.50;5030528;28;45554;-83
2021/10/07 07:46:07;;;;;;;;;26.50;23.25;;;;;11.24;75.16;102624.88;5035022;28;45399;-83
2021/10/07 07:48:33;;;;;;;;;26.50;23.75;;;;;11.31;75.25;102625.72;5038470;28;45708;-83
2021/10/07 07:50:59;;;;;;;;;32.25;25.00;;;;;11.37;75.19;102636.22;5037861;28;45629;-83
2021/10/07 07:53:25;;;;;;;;;23.75;20.00;;;;;11.40;75.32;102632.69;5039456;28;45759;-83
2021/10/07 07:55:50;;;;;;;;;26.50;24.00;;;;;11.46;75.10;102630.88;5038710;28;45280;-83
2021/10/07 07:58:17;;;;;;;;;34.00;28.00;;;;;11.51;75.24;102632.63;5038330;28;45471;-83
2021/10/07 08:00:42;;;;;;;;;29.25;25.25;;;;;11.56;75.34;102636.09;5038594;28;46923;-83
2021/10/07 08:03:08;;;;;;;;;34.75;30.00;;;;;11.63;75.45;102639.59;5039232;28;45364;-83
2021/10/07 08:05:33;;;;;;;;;31.25;26.50;;;;;11.67;75.16;102630.75;5038596;28;45520;-83
2021/10/07 08:07:59;;;;;;;;;36.00;30.50;;;;;11.77;75.23;102642.09;5038822;28;45416;-83
2021/10/07 08:10:24;;;;;;;;;29.50;29.25;;;;;11.80;75.17;102639.47;5039310;28;45465;-83
2021/10/07 08:12:50;;;;;;;;;35.75;29.50;;;;;11.91;75.30;102656.03;5039039;28;45551;-84
2021/10/07 08:15:16;;;;;;;;;50.25;35.25;;;;;11.94;75.02;102652.50;5029723;28;45570;-84
2021/10/07 08:17:42;;;;;;;;;33.75;31.00;;;;;12.01;75.07;102654.22;5038265;28;45992;-83
2021/10/07 08:20:10;;;;;;;;;41.75;33.00;;;;;12.09;75.19;102654.16;5039510;28;45330;-83
2021/10/07 08:22:36;;;;;;;;;39.50;30.75;;;;;12.14;74.68;102648.88;5037342;28;45870;-83
2021/10/07 08:25:02;;;;;;;;;32.75;30.25;;;;;12.20;74.82;102643.53;5039580;28;45269;-84
2021/10/07 08:27:28;;;;;;;;;35.00;28.00;;;;;12.32;74.70;102655.72;5039256;28;45585;-83
2021/10/07 08:29:54;;;;;;;;;35.50;30.00;;;;;12.36;74.57;102638.13;5038947;28;45598;-83
2021/10/07 08:32:20;;;;;;;;;38.75;32.75;;;;;12.49;74.54;102641.53;5030683;28;45549;-84
2021/10/07 08:34:45;;;;;;;;;33.75;31.00;;;;;12.52;74.12;102641.47;5038669;28;45240;-83
2021/10/07 08:37:10;;;;;;;;;37.25;30.00;;;;;12.60;74.39;102647.53;5042852;28;45391;-83
2021/10/07 08:39:37;;;;;;;;;33.25;29.25;;;;;12.66;74.38;102648.38;5038100;28;45371;-83
2021/10/07 08:42:03;;;;;;;;;34.00;30.25;;;;;12.70;74.14;102642.16;5025462;28;45407;-83
2021/10/07 08:44:29;;;;;;;;;32.00;29.00;;;;;12.74;74.02;102637.72;5038770;28;45483;-83
2021/10/07 08:46:55;;;;;;;;;33.50;28.25;;;;;12.81;73.92;102644.69;5038802;28;45403;-83
2021/10/07 08:49:22;;;;;;;;;35.75;31.25;;;;;12.91;73.58;102651.56;5030423;28;45495;-83
2021/10/07 08:51:49;;;;;;;;;33.75;30.00;;;;;13.00;73.49;102655.00;5038745;28;45834;-83
2021/10/07 08:54:16;;;;;;;;;34.50;29.50;;;;;13.07;73.38;102650.50;5038045;28;45421;-83
2021/10/07 08:56:41;;;;;;;;;39.75;32.50;;;;;13.07;73.45;102637.31;5037385;28;45395;-83
2021/10/07 08:59:07;;;;;;;;;31.50;30.00;;;;;13.14;73.39;102642.50;5038460;28;45769;-83
2021/10/07 09:01:35;;;;;;;;;34.25;30.00;;;;;13.24;73.32;102647.66;5033949;28;45236;-83
2021/10/07 09:04:17;;;;;;;;;28.50;27.50;;;;;13.25;73.37;102647.66;5032158;28;45300;-84
2021/10/07 09:06:51;;;;;;;;;34.75;31.00;;;;;13.30;73.15;102651.97;5031909;28;45572;-83
2021/10/07 09:09:17;;;;;;;;;42.00;32.75;;;;;13.27;73.21;102640.56;5028634;28;46221;-83
2021/10/07 09:11:51;;;;;;;;;40.00;34.25;;;;;13.32;73.16;102645.78;5029245;28;45808;-84
2021/10/07 09:14:18;;;;;;;;;42.75;34.75;;;;;13.38;73.05;102647.47;5037604;28;45525;-83
2021/10/07 09:16:46;;;;;;;;;41.50;33.75;;;;;13.39;73.28;102643.94;5038206;28;45406;-83
2021/10/07 09:19:33;;;;;;;;;38.25;33.25;;;;;13.41;73.10;102641.28;5038249;28;45452;-83
2021/10/07 09:22:19;;;;;;;;;36.75;33.25;;;;;13.49;73.14;102648.19;5036885;28;45376;-83
2021/10/07 09:24:45;;;;;;;;;43.00;33.00;;;;;13.50;72.61;102641.16;5038361;28;45382;-83
2021/10/07 09:27:14;;;;;;;;;43.25;35.00;;;;;13.52;72.94;102641.09;5036405;28;45550;-83
2021/10/07 09:29:54;;;;;;;;;44.00;35.75;;;;;13.58;72.94;102644.56;5037622;28;45486;-83
2021/10/07 09:32:37;;;;;;;;;44.50;37.00;;;;;13.58;72.85;102635.78;5032122;28;45994;-83
2021/10/07 09:35:05;;;;;;;;;36.75;29.00;;;;;13.66;73.13;102636.50;5036398;28;45429;-84
2021/10/07 09:37:42;;;;;;;;;40.75;33.50;;;;;13.66;73.02;102625.06;5037467;28;45458;-84
2021/10/07 09:40:08;;;;;;;;;32.50;29.75;;;;;13.79;72.08;102633.69;5038789;28;46285;-84
2021/10/07 09:42:40;;;;;;;;;32.00;27.75;;;;;13.82;72.20;102617.78;5038166;28;45249;-84
2021/10/07 09:45:12;;;;;;;;;40.50;33.25;;;;;13.94;72.29;102614.94;5051705;28;45312;-83
2021/10/07 09:47:52;;;;;;;;;25.50;21.75;;;;;14.05;72.16;102624.47;5036400;28;45533;-83
2021/10/07 09:50:20;;;;;;;;;32.50;29.50;;;;;14.11;72.18;102613.75;5020163;28;48349;-83
2021/10/07 09:52:48;;;;;;;;;27.75;25.25;;;;;14.20;71.62;102623.28;5022664;28;45625;-83
2021/10/07 09:55:20;;;;;;;;;16.75;15.25;;;;;14.25;71.32;102618.78;5036095;28;45431;-84
2021/10/07 09:57:50;;;;;;;;;17.25;15.75;;;;;14.38;71.48;102626.50;5019328;28;47281;-83
2021/10/07 10:00:16;;;;;;;;;10.50;8.00;;;;;14.46;71.08;102629.00;5037440;28;45508;-84
2021/10/07 10:02:41;;;;;;;;;20.00;16.25;;;;;14.50;70.82;102626.25;5038083;28;45482;-83
2021/10/07 10:05:13;;;;;;;;;13.50;8.75;;;;;14.60;70.65;102620.78;5039013;28;45304;-83
2021/10/07 10:07:40;;;;;;;;;8.25;7.00;;;;;14.74;70.04;102624.03;5026906;28;45478;-83
2021/10/07 10:10:06;;;;;;;;;12.25;9.25;;;;;14.80;70.17;102617.75;5040406;28;45372;-83
2021/10/07 10:12:32;;;;;;;;;13.50;10.50;;;;;14.90;69.57;102607.88;5038666;28;45577;-83
2021/10/07 10:14:58;;;;;;;;;12.50;8.25;;;;;15.03;69.37;102607.59;5030874;28;45443;-83
2021/10/07 10:17:24;;;;;;;;;11.00;8.00;;;;;15.15;69.15;102612.63;5046301;28;45876;-83
2021/10/07 10:19:52;;;;;;;;;11.50;8.00;;;;;15.23;67.31;102606.28;5040553;28;46123;-84
2021/10/07 10:22:21;;;;;;;;;9.75;9.00;;;;;15.33;67.88;102615.78;5041325;28;45317;-83
2021/10/07 10:24:47;;;;;;;;;6.75;5.50;;;;;15.45;67.64;102611.06;5042253;28;45258;-83
2021/10/07 10:27:13;;;;;;;;;8.00;5.50;;;;;15.53;66.84;102617.94;5040893;28;45235;-83
2021/10/07 10:29:38;;;;;;;;;7.75;7.50;;;;;15.60;66.88;102612.50;5041688;28;45359;-84
2021/10/07 10:32:05;;;;;;;;;8.00;5.00;;;;;15.71;65.97;102617.50;5041559;28;45238;-83
2021/10/07 10:34:40;;;;;;;;;7.50;4.25;;;;;15.82;64.89;102617.25;5037330;28;45403;-84
2021/10/07 10:37:05;;;;;;;;;5.50;3.75;;;;;15.85;66.02;102611.88;5040409;28;45466;-83
2021/10/07 10:39:39;;;;;;;;;10.25;3.25;;;;;15.93;66.31;102606.34;5023571;28;48421;-83
2021/10/07 10:42:07;;;;;;;;;4.00;4.00;;;;;15.98;64.26;102612.41;5040721;28;45601;-83
2021/10/07 10:44:41;;;;;;;;;3.75;3.25;;;;;16.00;64.18;102607.94;5042362;28;45512;-83
2021/10/07 10:47:06;;;;;;;;;4.25;4.00;;;;;16.11;64.63;102615.66;5030323;28;46991;-83
2021/10/07 10:49:40;;;;;;;;;7.00;4.75;;;;;16.15;63.85;102604.03;5040731;28;45267;-83
2021/10/07 10:52:21;;;;;;;;;6.00;1.00;;;;;16.20;64.22;102615.41;5022706;28;45376;-83
2021/10/07 10:54:48;;;;;;;;;5.00;4.00;;;;;16.17;62.71;102606.69;5035513;28;45265;-83
2021/10/07 10:57:34;;;;;;;;;8.00;5.75;;;;;16.23;62.38;102613.56;5023510;28;46020;-83
2021/10/07 11:00:07;;;;;;;;;5.25;4.00;;;;;16.25;62.37;102606.47;5022514;28;47643;-83
2021/10/07 11:02:33;;;;;;;;;5.50;4.00;;;;;16.22;61.84;102610.09;5040406;28;45241;-84
2021/10/07 11:05:13;;;;;;;;;4.25;3.00;;;;;16.33;62.66;102611.53;5041075;28;45265;-84
2021/10/07 11:07:39;;;;;;;;;9.75;5.00;;;;;16.35;61.96;102605.28;5038114;28;45455;-84
2021/10/07 11:10:12;;;;;;;;;6.25;4.00;;;;;16.41;62.42;102607.78;5040429;28;46272;-84
2021/10/07 11:12:50;;;;;;;;;5.75;4.75;;;;;16.46;61.40;102604.13;5040347;28;45372;-83
2021/10/07 11:15:18;;;;;;;;;5.00;5.00;;;;;16.41;61.95;102593.63;5022369;28;45551;-83
2021/10/07 11:17:45;;;;;;;;;5.50;3.25;;;;;16.46;61.89;102597.03;5039610;28;45319;-84
2021/10/07 11:20:17;;;;;;;;;3.75;3.75;;;;;16.48;59.77;102603.16;5028532;28;45517;-84